Pagina principale
METAR-TAF:

METAR-TAF

Aeroporti :

Aeroporto di Antananarivo-Ivato

Antananarivo, Madagascar

latitudine: 18-48S, longitudine: 047-29E, altezza: 1279 m

Osservazione

Il bollettino è stato emesso 29 minuti fa, alle 16:00 UTC
Vento 11 kt da est
Temperature 22°C
Umidità 60%
Pressione 1020 hPa
Visibilità 10 km o più
Nubi sparse ad un'altezza di 2000 ft, Cumulonembo.

METAR: FMMI 201600Z 08011KT 9999 SCT020CB 22/14 Q1020 TEMPO TS

Ora: 19:29 (16:29 UTC)

Previsione

Il bollettino è stato emesso 5 ore e 29 minuti fa, alle 11:00 UTC
Previsione valida dal 20 alle 12 UTC al 21 alle 18 UTC
Vento 8 kt da est
Visibilità 10 km o più
Nubi sparse ad un'altezza di 2000 ft
Probabilità 30% :
Temporaneamente
dal 20 alle 15 UTC al 20 alle 19 UTC
Vento 15 kt da direzioni variabili
temporale, pioggia

TAF: FMMI 201100Z 2012/2118 08008KT 9999 SCT020 PROB30 TEMPO 2015/2019 VRB15KT TSRA

Osservazioni e previsioni meteorologiche di più di 4000 aeroporti (messaggi METAR e TAF).

Le stazioni disponibili sono rappresentate dai dischi gialli e rossi sulla carta.

Puntare il mouse per vedere il nome della stazione.

Clicca sopra per visualizzare le osservazioni e previsioni meteorologiche.

Per cambiare la mappa : fare clic sui pulsanti verdi con una croce nera per ingrandire, il pulsante verde con un trattino per diminuire, o sulla freccia verde per le mappe adiacenti.


METAR-TAF: